Dati Storici

Data ora Umidita' aria (%) Temperatura aria (°C) Rad globale (W/m²) Gonioanemometro (°) Tacoanemometro (m/s) Pioggia (mm)
29-10-2012 00:50 75 % 6.076 3.357 37.422 4.126 0
29-10-2012 00:40 74.7 % 5.921 2.549 71.578 7.939 0
29-10-2012 00:30 75.2 % 5.952 1.971 25.758 4.003 0
29-10-2012 00:20 77.4 % 5.876 2.061 31.368 4.158 0
29-10-2012 00:10 77.6 % 5.932 1.549 30.332 7.33 0
29-10-2012 00:00 76.6 % 5.87 1.19 42.965 7.595 1
28-10-2012 23:50 72.9 % 6.146 1.87 27.226 9.475 0
28-10-2012 23:40 71.2 % 6.204 3.808 30.305 3.042 0
28-10-2012 23:30 70.4 % 6.322 3.307 46.155 6.752 0
28-10-2012 23:20 72 % 6.071 2.353 18.979 5.887 0
28-10-2012 23:10 71.2 % 6.1 2.238 35.178 5.67 0
28-10-2012 23:00 72.2 % 6.005 2.841 11.665 4.415 0
28-10-2012 22:50 72 % 6.103 2.173 14.132 3.498 0
28-10-2012 22:40 73.1 % 6.08 1.108 24.959 3.156 0
28-10-2012 22:30 74.4 % 6.019 2.327 14.8 1.669 0
28-10-2012 22:20 74.7 % 5.969 2.302 43.496 6.365 0
28-10-2012 22:10 74.7 % 5.989 2.622 62.697 3.694 0
28-10-2012 22:00 74.6 % 6.1 3.724 57.911 5.737 0
28-10-2012 21:50 75.1 % 6.111 1.723 51.434 3.371 0
28-10-2012 21:40 76.3 % 6.081 2.775 30.77 10.755 0

I dati sono presentati in modo automatico a scopo informativo. In seguito a verifica i dati possono subire modifiche o essere invalidati e non riportati negli archivi definitivi.